createdAt,value
2023-03-11T00:00:09.153Z,2.33
2023-03-11T00:02:35.640Z,2.75
2023-03-11T00:05:02.619Z,2.13
2023-03-11T00:07:29.192Z,2.58
2023-03-11T00:09:55.632Z,2.30
2023-03-11T00:12:22.087Z,2.22
2023-03-11T00:14:48.540Z,2.15
2023-03-11T00:17:14.991Z,2.05
2023-03-11T00:19:41.540Z,2.60
2023-03-11T00:22:08.106Z,2.35
2023-03-11T00:24:34.932Z,2.40
2023-03-11T00:27:01.370Z,2.10
2023-03-11T00:29:27.944Z,2.20
2023-03-11T00:31:54.727Z,2.10
2023-03-11T00:34:21.201Z,2.28
2023-03-11T00:36:47.647Z,2.42
2023-03-11T00:39:14.989Z,3.08
2023-03-11T00:41:41.430Z,2.35
2023-03-11T00:44:07.927Z,2.17
2023-03-11T00:46:34.374Z,2.38
2023-03-11T00:49:00.974Z,2.38
2023-03-11T00:51:28.114Z,2.60
2023-03-11T00:53:54.932Z,2.38
2023-03-11T00:56:21.440Z,2.38
2023-03-11T00:58:47.851Z,2.83
2023-03-11T01:01:17.682Z,2.60
2023-03-11T01:03:44.518Z,3.63
2023-03-11T01:06:11.442Z,2.60
2023-03-11T01:08:38.499Z,2.45
2023-03-11T01:11:07.011Z,2.58
2023-03-11T01:13:34.026Z,2.70
2023-03-11T01:16:00.994Z,2.85
2023-03-11T01:18:27.705Z,2.85
2023-03-11T01:20:54.258Z,3.00
2023-03-11T01:23:21.151Z,2.63
2023-03-11T01:25:48.186Z,3.25
2023-03-11T01:28:14.657Z,2.78
2023-03-11T01:30:42.341Z,3.33
2023-03-11T01:33:15.221Z,2.70
2023-03-11T01:35:42.292Z,2.88
2023-03-11T01:38:09.122Z,2.72
2023-03-11T01:40:38.341Z,2.63
2023-03-11T01:45:41.263Z,2.22
2023-03-11T01:48:09.252Z,3.30
2023-03-11T01:50:40.224Z,2.15
2023-03-11T01:53:07.808Z,2.78
2023-03-11T01:55:34.652Z,2.40
2023-03-11T01:58:05.771Z,2.55
2023-03-11T02:00:32.319Z,2.05
2023-03-11T02:03:02.178Z,2.25
2023-03-11T02:05:28.834Z,2.33
2023-03-11T02:07:56.093Z,2.08
2023-03-11T02:10:22.611Z,2.13
2023-03-11T02:12:50.757Z,2.70
2023-03-11T02:15:17.549Z,3.03
2023-03-11T02:17:44.634Z,2.65
2023-03-11T02:20:32.642Z,2.35
2023-03-11T02:23:01.518Z,2.20
2023-03-11T02:26:00.170Z,2.67
2023-03-11T02:28:28.218Z,3.60
2023-03-11T02:30:56.925Z,2.13
2023-03-11T02:33:28.181Z,2.50
2023-03-11T02:35:54.960Z,2.47
2023-03-11T02:38:21.423Z,2.50
2023-03-11T02:40:48.633Z,2.35
2023-03-11T02:43:18.047Z,2.90
2023-03-11T02:45:46.844Z,2.15
2023-03-11T02:48:14.457Z,2.22
2023-03-11T02:50:41.466Z,2.47
2023-03-11T02:53:08.233Z,2.15
2023-03-11T02:55:34.688Z,2.47
2023-03-11T02:58:01.546Z,2.35
2023-03-11T03:00:28.017Z,2.17
2023-03-11T03:02:54.784Z,1.98
2023-03-11T03:05:22.536Z,2.30
2023-03-11T03:07:49.982Z,2.67
2023-03-11T03:10:17.869Z,2.00
2023-03-11T03:12:44.293Z,2.25
2023-03-11T03:15:11.991Z,2.22
2023-03-11T03:17:38.729Z,2.22
2023-03-11T03:20:11.196Z,2.28
2023-03-11T03:22:39.371Z,2.20
2023-03-11T03:25:06.463Z,2.10
2023-03-11T03:27:34.300Z,2.72
2023-03-11T03:30:00.739Z,1.88
2023-03-11T03:32:27.263Z,2.90
2023-03-11T03:34:58.847Z,1.90
2023-03-11T03:37:27.302Z,2.10
2023-03-11T03:39:54.753Z,2.30
2023-03-11T03:42:21.768Z,1.80
2023-03-11T03:44:48.270Z,1.98
2023-03-11T03:47:14.826Z,2.13
2023-03-11T03:49:41.528Z,2.30
2023-03-11T03:52:08.642Z,2.10
2023-03-11T03:54:35.123Z,2.10
2023-03-11T03:57:02.108Z,2.53
2023-03-11T03:59:28.823Z,1.83
2023-03-11T04:01:55.624Z,1.95
2023-03-11T04:04:22.111Z,1.90
2023-03-11T04:06:48.650Z,1.85
2023-03-11T04:09:15.109Z,2.28
2023-03-11T04:11:41.622Z,2.05
2023-03-11T04:14:08.115Z,2.08
2023-03-11T04:16:34.659Z,2.22
2023-03-11T04:19:01.150Z,2.33
2023-03-11T04:21:27.606Z,2.88
2023-03-11T04:23:54.141Z,2.05
2023-03-11T04:26:20.596Z,2.67
2023-03-11T04:28:47.102Z,2.30
2023-03-11T04:31:13.762Z,2.10
2023-03-11T04:33:40.326Z,2.47
2023-03-11T04:36:08.712Z,2.50
2023-03-11T04:38:35.555Z,2.10
2023-03-11T04:41:03.203Z,2.47
2023-03-11T04:43:29.678Z,2.45
2023-03-11T04:45:56.181Z,2.33
2023-03-11T04:48:22.785Z,2.22
2023-03-11T04:50:49.220Z,2.65
2023-03-11T04:53:15.875Z,2.03
2023-03-11T04:55:42.379Z,2.30
2023-03-11T04:58:08.966Z,2.40
2023-03-11T05:00:35.576Z,2.35
2023-03-11T05:03:02.162Z,2.85
2023-03-11T05:05:28.703Z,2.38
2023-03-11T05:07:55.146Z,3.22
2023-03-11T05:10:24.319Z,3.03
2023-03-11T05:15:18.195Z,2.38
2023-03-11T05:17:45.117Z,2.10
2023-03-11T05:20:12.732Z,2.15
2023-03-11T05:22:39.332Z,2.67
2023-03-11T05:25:06.683Z,1.92
2023-03-11T05:27:33.246Z,2.60
2023-03-11T05:29:59.721Z,2.70
2023-03-11T05:32:26.342Z,2.40
2023-03-11T05:34:52.922Z,2.55
2023-03-11T05:37:19.401Z,2.80
2023-03-11T05:39:45.856Z,3.05
2023-03-11T05:42:12.474Z,2.17
2023-03-11T05:44:39.002Z,2.47
2023-03-11T05:47:05.466Z,2.60
2023-03-11T05:49:32.050Z,2.97
2023-03-11T05:51:58.936Z,2.03
2023-03-11T05:54:25.601Z,2.40
2023-03-11T05:56:52.334Z,2.03
2023-03-11T05:59:19.835Z,2.60
2023-03-11T06:01:46.351Z,2.40
2023-03-11T06:04:13.518Z,2.58
2023-03-11T06:06:43.913Z,2.63
2023-03-11T06:09:13.318Z,2.78
2023-03-11T06:11:39.738Z,2.30
2023-03-11T06:14:06.284Z,2.30
2023-03-11T06:16:32.986Z,2.50
2023-03-11T06:19:02.484Z,2.42
2023-03-11T06:21:28.915Z,2.13
2023-03-11T06:23:55.402Z,2.65
2023-03-11T06:26:23.582Z,2.20
2023-03-11T06:28:51.977Z,2.60
2023-03-11T06:31:27.050Z,2.77
2023-03-11T06:33:55.866Z,2.20
2023-03-11T06:36:23.757Z,4.10
2023-03-11T06:38:52.364Z,3.72
2023-03-11T06:41:18.822Z,2.50
2023-03-11T06:43:45.381Z,2.95
2023-03-11T06:46:15.205Z,2.25
2023-03-11T06:48:41.867Z,2.63
2023-03-11T06:51:09.721Z,2.95
2023-03-11T06:53:36.203Z,2.38
2023-03-11T06:56:06.882Z,2.65
2023-03-11T06:58:35.367Z,2.83
2023-03-11T07:01:06.980Z,2.65
2023-03-11T07:03:33.454Z,2.80
2023-03-11T07:06:00.003Z,3.42
2023-03-11T07:08:27.215Z,3.28
2023-03-11T07:11:07.112Z,3.47
2023-03-11T07:13:33.960Z,3.85
2023-03-11T07:16:10.476Z,2.80
2023-03-11T07:18:38.396Z,3.15
2023-03-11T07:21:06.979Z,3.40
2023-03-11T07:23:34.140Z,2.88
2023-03-11T07:26:01.156Z,3.28
2023-03-11T07:28:29.049Z,3.13
2023-03-11T07:30:55.663Z,3.13
2023-03-11T07:33:28.174Z,2.83
2023-03-11T07:35:54.667Z,3.15
2023-03-11T07:38:21.483Z,3.40
2023-03-11T07:40:57.152Z,3.90
2023-03-11T07:43:23.649Z,3.28
2023-03-11T07:45:51.424Z,3.30
2023-03-11T07:48:18.563Z,3.88
2023-03-11T07:50:45.052Z,3.50
2023-03-11T07:53:11.493Z,3.63
2023-03-11T07:55:37.993Z,3.58
2023-03-11T07:58:04.456Z,3.22
2023-03-11T08:00:31.026Z,3.00
2023-03-11T08:02:57.786Z,3.22
2023-03-11T08:05:24.306Z,3.65
2023-03-11T08:07:50.739Z,3.00
2023-03-11T08:10:17.425Z,2.88
2023-03-11T08:12:43.894Z,3.42
2023-03-11T08:15:10.981Z,3.53
2023-03-11T08:17:37.464Z,2.80
2023-03-11T08:20:05.050Z,3.20
2023-03-11T08:22:31.546Z,3.03
2023-03-11T08:24:57.972Z,2.90
2023-03-11T08:27:24.412Z,3.00
2023-03-11T08:29:50.848Z,2.78
2023-03-11T08:32:17.400Z,3.03
2023-03-11T08:34:44.016Z,3.45
2023-03-11T08:37:10.578Z,3.40
2023-03-11T08:39:37.019Z,3.22
2023-03-11T08:42:03.690Z,2.95
2023-03-11T08:44:30.331Z,3.08
2023-03-11T08:46:56.927Z,3.38
2023-03-11T08:49:23.471Z,2.80
2023-03-11T08:51:50.076Z,2.40
2023-03-11T08:54:16.593Z,2.88
2023-03-11T08:56:43.161Z,3.55
2023-03-11T08:59:09.612Z,2.80
2023-03-11T09:01:36.121Z,2.60
2023-03-11T09:04:02.656Z,2.38
2023-03-11T09:06:30.528Z,2.20
2023-03-11T09:08:57.260Z,2.53
2023-03-11T09:11:23.999Z,2.38
2023-03-11T09:13:50.441Z,2.40
2023-03-11T09:16:22.670Z,1.92
2023-03-11T09:18:49.508Z,2.53
2023-03-11T09:21:16.026Z,2.25
2023-03-11T09:23:44.383Z,2.75
2023-03-11T09:26:11.868Z,2.60
2023-03-11T09:28:38.487Z,1.55
2023-03-11T09:31:05.370Z,1.65
2023-03-11T09:33:31.937Z,1.33
2023-03-11T09:36:00.279Z,2.15
2023-03-11T09:38:26.783Z,1.77
2023-03-11T09:41:05.761Z,1.75
2023-03-11T09:44:01.852Z,1.50
2023-03-11T09:46:40.478Z,1.88
2023-03-11T09:49:39.687Z,1.85
2023-03-11T09:54:47.275Z,1.00
2023-03-11T09:57:21.791Z,1.20
2023-03-11T09:59:48.833Z,1.00
2023-03-11T10:02:19.296Z,1.13
2023-03-11T10:04:54.883Z,1.80
2023-03-11T10:07:27.738Z,1.38
2023-03-11T10:10:00.260Z,1.17
2023-03-11T10:12:36.011Z,1.20
2023-03-11T10:15:02.403Z,1.40
2023-03-11T10:18:01.838Z,1.35
2023-03-11T10:20:40.113Z,1.60
2023-03-11T10:23:51.274Z,1.92
2023-03-11T10:26:31.247Z,1.60
2023-03-11T10:29:16.536Z,1.52
2023-03-11T10:31:50.524Z,1.38
2023-03-11T10:34:26.821Z,1.60
2023-03-11T10:37:06.743Z,1.70
2023-03-11T10:39:34.387Z,1.60
2023-03-11T10:42:03.295Z,1.70
2023-03-11T10:44:35.355Z,1.88
2023-03-11T10:47:02.180Z,1.77
2023-03-11T10:49:29.473Z,1.75
2023-03-11T10:51:57.235Z,1.60
2023-03-11T10:54:38.399Z,1.58
2023-03-11T10:57:27.303Z,1.73
2023-03-11T10:59:56.334Z,2.15
2023-03-11T11:02:43.219Z,1.85
2023-03-11T11:05:18.880Z,1.67
2023-03-11T11:07:47.995Z,1.80
2023-03-11T11:10:22.029Z,1.92
2023-03-11T11:13:03.891Z,1.52
2023-03-11T11:15:36.042Z,2.75
2023-03-11T11:18:06.112Z,1.33
2023-03-11T11:20:34.025Z,1.85
2023-03-11T11:23:03.380Z,1.30
2023-03-11T11:25:29.935Z,1.10
2023-03-11T11:27:59.758Z,1.20
2023-03-11T11:30:28.005Z,1.33
2023-03-11T11:32:55.743Z,1.40
2023-03-11T11:35:24.266Z,1.35
2023-03-11T11:38:00.103Z,1.20
2023-03-11T11:40:30.808Z,1.25
2023-03-11T11:43:01.209Z,1.25
2023-03-11T11:45:36.305Z,1.45
2023-03-11T11:48:24.139Z,1.20
2023-03-11T11:50:57.605Z,1.23
2023-03-11T11:53:46.690Z,1.10
2023-03-11T11:56:13.499Z,1.75
2023-03-11T11:58:41.303Z,1.23
2023-03-11T12:01:23.808Z,1.60
2023-03-11T12:04:13.263Z,1.40
2023-03-11T12:07:14.773Z,1.20
2023-03-11T12:09:47.336Z,1.55
2023-03-11T12:12:21.339Z,1.42
2023-03-11T12:15:00.988Z,2.63
2023-03-11T12:17:30.434Z,1.67
2023-03-11T12:22:45.049Z,1.17
2023-03-11T12:25:39.270Z,1.38
2023-03-11T12:28:27.656Z,1.70
2023-03-11T12:30:58.106Z,1.40
2023-03-11T12:33:32.087Z,1.80
2023-03-11T12:36:02.351Z,1.27
2023-03-11T12:38:34.432Z,1.45
2023-03-11T12:41:27.640Z,1.63
2023-03-11T12:43:58.014Z,1.42
2023-03-11T12:46:59.627Z,1.13
2023-03-11T12:49:33.341Z,1.23
2023-03-11T12:52:18.618Z,1.15
2023-03-11T12:54:47.664Z,1.60
2023-03-11T12:57:17.249Z,1.50
2023-03-11T13:02:50.457Z,2.33
2023-03-11T13:05:34.931Z,2.10
2023-03-11T13:08:22.920Z,1.60
2023-03-11T13:10:51.713Z,1.55
2023-03-11T13:13:39.576Z,1.17
2023-03-11T13:16:15.028Z,1.33
2023-03-11T13:18:43.685Z,1.30
2023-03-11T13:21:28.361Z,1.80
2023-03-11T13:24:19.926Z,13.40
2023-03-11T13:26:55.116Z,1.48
2023-03-11T13:29:57.140Z,1.30
2023-03-11T13:32:52.523Z,1.70
2023-03-11T13:35:44.994Z,1.40
2023-03-11T13:38:39.459Z,1.23
2023-03-11T13:41:16.271Z,1.48
2023-03-11T13:43:48.771Z,2.25
2023-03-11T13:46:27.655Z,1.50
2023-03-11T13:49:03.750Z,1.40
2023-03-11T13:51:40.159Z,1.88
2023-03-11T13:54:22.873Z,1.30
2023-03-11T13:56:55.694Z,1.35
2023-03-11T13:59:23.270Z,2.42
2023-03-11T14:01:51.437Z,1.30
2023-03-11T14:04:25.453Z,1.90
2023-03-11T14:06:52.467Z,1.25
2023-03-11T14:09:20.967Z,4.18
2023-03-11T14:11:48.879Z,1.63
2023-03-11T14:14:43.297Z,2.00
2023-03-11T14:17:16.367Z,1.60
2023-03-11T14:19:43.657Z,1.73
2023-03-11T14:22:11.055Z,3.03
2023-03-11T14:24:39.665Z,1.77
2023-03-11T14:27:09.343Z,1.65
2023-03-11T14:29:42.484Z,2.45
2023-03-11T14:32:27.773Z,4.40
2023-03-11T14:34:54.994Z,1.75
2023-03-11T14:37:32.684Z,4.25
2023-03-11T14:39:59.439Z,2.42
2023-03-11T14:42:33.878Z,1.75
2023-03-11T14:45:18.633Z,1.55
2023-03-11T14:48:08.081Z,1.75
2023-03-11T14:50:35.139Z,1.40
2023-03-11T14:53:40.273Z,2.00
2023-03-11T14:56:12.846Z,1.92
2023-03-11T14:59:08.385Z,1.70
2023-03-11T15:01:42.122Z,1.30
2023-03-11T15:04:13.452Z,1.92
2023-03-11T15:06:43.233Z,1.80
2023-03-11T15:09:19.349Z,1.70
2023-03-11T15:12:01.306Z,1.75
2023-03-11T15:14:33.515Z,1.45
2023-03-11T15:17:37.111Z,1.67
2023-03-11T15:20:24.300Z,1.83
2023-03-11T15:23:00.652Z,1.48
2023-03-11T15:25:33.981Z,1.70
2023-03-11T15:28:24.274Z,1.70
2023-03-11T15:30:52.363Z,1.70
2023-03-11T15:33:30.116Z,1.55
2023-03-11T15:35:56.561Z,2.10
2023-03-11T15:38:26.183Z,1.70
2023-03-11T15:40:56.512Z,2.17
2023-03-11T15:43:30.686Z,1.45
2023-03-11T15:46:00.192Z,1.88
2023-03-11T15:48:28.851Z,1.40
2023-03-11T15:50:57.687Z,1.70
2023-03-11T15:53:26.554Z,1.77
2023-03-11T15:56:05.975Z,1.73
2023-03-11T15:58:33.268Z,1.67
2023-03-11T16:01:00.040Z,2.50
2023-03-11T16:03:26.541Z,1.75
2023-03-11T16:05:53.035Z,1.95
2023-03-11T16:08:19.470Z,1.80
2023-03-11T16:10:45.966Z,1.77
2023-03-11T16:13:13.963Z,1.85
2023-03-11T16:15:42.278Z,1.75
2023-03-11T16:18:09.775Z,2.38
2023-03-11T16:21:04.641Z,1.67
2023-03-11T16:23:50.205Z,1.65
2023-03-11T16:26:17.485Z,1.60
2023-03-11T16:28:44.072Z,1.60
2023-03-11T16:31:10.646Z,1.92
2023-03-11T16:33:37.167Z,2.20
2023-03-11T16:36:04.235Z,2.05
2023-03-11T16:38:42.108Z,2.05
2023-03-11T16:41:08.525Z,2.00
2023-03-11T16:43:34.935Z,2.08
2023-03-11T16:46:01.467Z,2.15
2023-03-11T16:48:27.897Z,1.95
2023-03-11T16:50:54.361Z,1.67
2023-03-11T16:53:20.848Z,1.98
2023-03-11T16:55:47.999Z,2.00
2023-03-11T16:58:15.173Z,2.58
2023-03-11T17:00:42.297Z,1.70
2023-03-11T17:03:12.298Z,2.00
2023-03-11T17:05:38.892Z,2.05
2023-03-11T17:08:06.496Z,1.80
2023-03-11T17:10:42.671Z,3.58
2023-03-11T17:13:11.273Z,2.35
2023-03-11T17:15:38.298Z,2.08
2023-03-11T17:18:05.978Z,1.77
2023-03-11T17:20:33.696Z,1.83
2023-03-11T17:23:00.494Z,1.83
2023-03-11T17:25:27.106Z,1.70
2023-03-11T17:27:53.607Z,2.00
2023-03-11T17:30:35.611Z,1.85
2023-03-11T17:33:03.263Z,2.20
2023-03-11T17:35:29.781Z,2.20
2023-03-11T17:37:56.388Z,2.60
2023-03-11T17:40:22.845Z,2.00
2023-03-11T17:42:49.307Z,1.50
2023-03-11T17:45:15.758Z,2.22
2023-03-11T17:47:42.316Z,2.72
2023-03-11T17:50:09.520Z,2.17
2023-03-11T17:52:35.996Z,1.70
2023-03-11T17:55:02.471Z,1.95
2023-03-11T17:57:28.880Z,2.25
2023-03-11T17:59:55.320Z,1.90
2023-03-11T18:02:21.897Z,1.75
2023-03-11T18:04:53.686Z,2.80
2023-03-11T18:07:22.913Z,3.35
2023-03-11T18:09:53.391Z,3.70
2023-03-11T18:12:20.716Z,3.65
2023-03-11T18:14:47.374Z,3.45
2023-03-11T18:17:13.824Z,2.72
2023-03-11T18:19:40.326Z,2.65
2023-03-11T18:22:06.864Z,2.40
2023-03-11T18:24:33.272Z,2.13
2023-03-11T18:26:59.767Z,2.13
2023-03-11T18:29:26.195Z,2.42
2023-03-11T18:31:52.666Z,2.05
2023-03-11T18:34:19.216Z,2.60
2023-03-11T18:36:45.729Z,2.72
2023-03-11T18:39:13.651Z,2.60
2023-03-11T18:41:41.075Z,2.22
2023-03-11T18:44:08.394Z,2.40
2023-03-11T18:46:34.999Z,2.80
2023-03-11T18:49:03.338Z,2.50
2023-03-11T18:51:31.679Z,1.98
2023-03-11T18:53:58.792Z,2.78
2023-03-11T18:56:25.774Z,8.45
2023-03-11T18:58:52.480Z,3.45
2023-03-11T19:01:20.809Z,2.80
2023-03-11T19:03:58.099Z,2.37
2023-03-11T19:06:27.010Z,2.63
2023-03-11T19:08:54.256Z,2.65
2023-03-11T19:11:23.201Z,3.58
2023-03-11T19:13:50.421Z,3.70
2023-03-11T19:16:20.027Z,4.53
2023-03-11T19:18:46.899Z,4.32
2023-03-11T19:21:15.032Z,3.15
2023-03-11T19:23:41.918Z,3.15
2023-03-11T19:26:08.445Z,7.22
2023-03-11T19:28:35.408Z,5.10
2023-03-11T19:31:03.669Z,5.40
2023-03-11T19:33:30.491Z,3.65
2023-03-11T19:36:02.160Z,3.88
2023-03-11T19:38:29.474Z,3.78
2023-03-11T19:41:07.987Z,3.80
2023-03-11T19:43:38.137Z,3.78
2023-03-11T19:46:06.015Z,4.03
2023-03-11T19:48:33.091Z,3.70
2023-03-11T19:51:00.109Z,5.20
2023-03-11T19:53:27.256Z,4.70
2023-03-11T19:55:56.130Z,4.47
2023-03-11T19:58:23.816Z,4.47
2023-03-11T20:00:51.050Z,3.78
2023-03-11T20:03:19.070Z,4.47
2023-03-11T20:05:46.916Z,4.90
2023-03-11T20:08:16.407Z,4.68
2023-03-11T20:10:45.578Z,6.97
2023-03-11T20:13:13.170Z,6.90
2023-03-11T20:15:40.178Z,9.18
2023-03-11T20:18:07.280Z,12.05
2023-03-11T20:20:38.097Z,11.05
2023-03-11T20:23:04.895Z,10.90
2023-03-11T20:25:32.431Z,12.02
2023-03-11T20:27:59.903Z,14.10
2023-03-11T20:30:27.401Z,14.18
2023-03-11T20:32:54.584Z,15.45
2023-03-11T20:35:21.999Z,13.32
2023-03-11T20:37:48.776Z,9.95
2023-03-11T20:40:17.008Z,9.93
2023-03-11T20:42:46.625Z,8.25
2023-03-11T20:45:21.876Z,8.38
2023-03-11T20:47:50.353Z,8.95
2023-03-11T20:50:17.278Z,8.73
2023-03-11T20:52:45.180Z,9.73
2023-03-11T20:55:12.323Z,9.95
2023-03-11T20:57:40.039Z,10.15
2023-03-11T21:00:12.506Z,9.45
2023-03-11T21:02:40.785Z,10.57
2023-03-11T21:05:08.726Z,9.50
2023-03-11T21:07:35.531Z,10.00
2023-03-11T21:10:04.182Z,10.25
2023-03-11T21:12:31.406Z,10.88
2023-03-11T21:15:00.624Z,9.23
2023-03-11T21:19:53.824Z,9.52
2023-03-11T21:22:20.473Z,8.98
2023-03-11T21:24:53.710Z,8.70
2023-03-11T21:27:29.626Z,8.80
2023-03-11T21:29:56.995Z,8.43
2023-03-11T21:32:25.384Z,8.55
2023-03-11T21:34:57.159Z,8.40
2023-03-11T21:37:23.873Z,8.40
2023-03-11T21:39:50.552Z,8.55
2023-03-11T21:42:17.677Z,8.75
2023-03-11T21:44:44.489Z,8.90
2023-03-11T21:47:11.039Z,8.70
2023-03-11T21:49:38.732Z,8.93
2023-03-11T21:52:06.576Z,8.85
2023-03-11T21:54:33.086Z,9.70
2023-03-11T21:56:59.701Z,9.70
2023-03-11T21:59:26.422Z,8.25
2023-03-11T22:01:53.053Z,8.07
2023-03-11T22:04:19.895Z,7.45
2023-03-11T22:06:46.492Z,8.25
2023-03-11T22:09:13.086Z,8.13
2023-03-11T22:11:39.853Z,8.52
2023-03-11T22:14:06.530Z,7.93
2023-03-11T22:16:33.160Z,8.07
2023-03-11T22:18:59.872Z,8.40
2023-03-11T22:21:26.474Z,7.90
2023-03-11T22:23:52.948Z,6.95
2023-03-11T22:26:19.502Z,7.60
2023-03-11T22:28:46.056Z,7.65
2023-03-11T22:31:14.794Z,7.50
2023-03-11T22:33:41.371Z,7.07
2023-03-11T22:36:09.086Z,7.10
2023-03-11T22:38:36.817Z,7.22
2023-03-11T22:41:07.411Z,7.28
2023-03-11T22:43:35.419Z,7.65
2023-03-11T22:46:02.648Z,7.47
2023-03-11T22:48:29.202Z,7.13
2023-03-11T22:50:55.645Z,7.13
2023-03-11T22:53:23.216Z,6.18
2023-03-11T22:55:49.628Z,7.10
2023-03-11T22:58:16.066Z,7.35
2023-03-11T23:00:44.076Z,6.18
2023-03-11T23:03:11.929Z,6.97
2023-03-11T23:05:42.271Z,7.00
2023-03-11T23:08:15.482Z,6.82
2023-03-11T23:10:43.851Z,6.68
2023-03-11T23:13:10.551Z,6.53
2023-03-11T23:15:40.230Z,6.68
2023-03-11T23:18:06.924Z,7.03
2023-03-11T23:20:38.025Z,6.82
2023-03-11T23:23:05.036Z,6.28
2023-03-11T23:25:32.351Z,6.63
2023-03-11T23:28:00.898Z,5.88
2023-03-11T23:30:27.338Z,6.88
2023-03-11T23:32:54.013Z,6.95
2023-03-11T23:35:20.548Z,6.43
2023-03-11T23:37:50.865Z,5.80
2023-03-11T23:40:17.747Z,5.88
2023-03-11T23:42:44.250Z,5.82
2023-03-11T23:45:11.318Z,6.30
2023-03-11T23:47:37.793Z,6.00
2023-03-11T23:50:04.593Z,6.90
2023-03-11T23:52:31.338Z,6.15
2023-03-11T23:54:57.775Z,6.78
2023-03-11T23:57:24.283Z,6.63
2023-03-11T23:59:50.695Z,6.47
